sensor_id;sensor_type;location;lat;lon;timestamp;P1;durP1;ratioP1;P2;durP2;ratioP2
56455;SDS011;42354;53.218;6.564;2023-02-15T00:02:25;137.85;;;63.15;;
56455;SDS011;42354;53.218;6.564;2023-02-15T00:04:52;140.82;;;64.50;;
56455;SDS011;42354;53.218;6.564;2023-02-15T00:07:18;137.48;;;65.30;;
56455;SDS011;42354;53.218;6.564;2023-02-15T00:09:47;147.63;;;66.93;;
56455;SDS011;42354;53.218;6.564;2023-02-15T00:12:13;155.13;;;66.35;;
56455;SDS011;42354;53.218;6.564;2023-02-15T00:14:39;137.05;;;63.22;;
56455;SDS011;42354;53.218;6.564;2023-02-15T00:17:04;142.63;;;63.75;;
56455;SDS011;42354;53.218;6.564;2023-02-15T00:19:29;146.80;;;63.55;;
56455;SDS011;42354;53.218;6.564;2023-02-15T00:21:55;148.25;;;63.75;;
56455;SDS011;42354;53.218;6.564;2023-02-15T00:24:20;140.23;;;63.45;;
56455;SDS011;42354;53.218;6.564;2023-02-15T00:26:46;141.45;;;64.45;;
56455;SDS011;42354;53.218;6.564;2023-02-15T00:29:16;139.05;;;63.88;;
56455;SDS011;42354;53.218;6.564;2023-02-15T00:31:43;149.75;;;64.35;;
56455;SDS011;42354;53.218;6.564;2023-02-15T00:34:13;152.18;;;64.30;;
56455;SDS011;42354;53.218;6.564;2023-02-15T00:36:43;157.75;;;65.47;;
56455;SDS011;42354;53.218;6.564;2023-02-15T00:39:09;157.35;;;66.03;;
56455;SDS011;42354;53.218;6.564;2023-02-15T00:41:35;155.23;;;65.95;;
56455;SDS011;42354;53.218;6.564;2023-02-15T00:44:01;157.85;;;70.63;;
56455;SDS011;42354;53.218;6.564;2023-02-15T00:46:26;162.32;;;67.50;;
56455;SDS011;42354;53.218;6.564;2023-02-15T00:48:52;162.90;;;68.95;;
56455;SDS011;42354;53.218;6.564;2023-02-15T00:51:17;177.10;;;72.78;;
56455;SDS011;42354;53.218;6.564;2023-02-15T00:53:43;171.57;;;70.63;;
56455;SDS011;42354;53.218;6.564;2023-02-15T00:56:09;160.25;;;69.15;;
56455;SDS011;42354;53.218;6.564;2023-02-15T00:58:36;175.25;;;73.38;;
56455;SDS011;42354;53.218;6.564;2023-02-15T01:01:05;192.27;;;75.28;;
56455;SDS011;42354;53.218;6.564;2023-02-15T01:03:35;175.25;;;73.30;;
56455;SDS011;42354;53.218;6.564;2023-02-15T01:06:01;179.65;;;75.43;;
56455;SDS011;42354;53.218;6.564;2023-02-15T01:08:28;187.70;;;76.32;;
56455;SDS011;42354;53.218;6.564;2023-02-15T01:10:53;190.35;;;78.18;;
56455;SDS011;42354;53.218;6.564;2023-02-15T01:13:19;209.35;;;80.53;;
56455;SDS011;42354;53.218;6.564;2023-02-15T01:15:44;201.82;;;78.90;;
56455;SDS011;42354;53.218;6.564;2023-02-15T01:18:10;203.25;;;77.88;;
56455;SDS011;42354;53.218;6.564;2023-02-15T01:20:37;215.10;;;78.68;;
56455;SDS011;42354;53.218;6.564;2023-02-15T01:23:05;223.82;;;82.32;;
56455;SDS011;42354;53.218;6.564;2023-02-15T01:25:32;222.57;;;82.63;;
56455;SDS011;42354;53.218;6.564;2023-02-15T01:28:00;200.48;;;79.75;;
56455;SDS011;42354;53.218;6.564;2023-02-15T01:30:26;189.48;;;75.90;;
56455;SDS011;42354;53.218;6.564;2023-02-15T01:32:52;185.05;;;76.35;;
56455;SDS011;42354;53.218;6.564;2023-02-15T01:35:21;189.00;;;75.57;;
56455;SDS011;42354;53.218;6.564;2023-02-15T01:37:46;191.95;;;76.45;;
56455;SDS011;42354;53.218;6.564;2023-02-15T01:40:12;210.88;;;78.82;;
56455;SDS011;42354;53.218;6.564;2023-02-15T01:42:40;190.18;;;78.75;;
56455;SDS011;42354;53.218;6.564;2023-02-15T01:45:25;194.80;;;77.53;;
56455;SDS011;42354;53.218;6.564;2023-02-15T01:50:50;199.20;;;76.93;;
56455;SDS011;42354;53.218;6.564;2023-02-15T01:56:09;228.35;;;81.55;;
56455;SDS011;42354;53.218;6.564;2023-02-15T01:58:38;205.82;;;78.70;;
56455;SDS011;42354;53.218;6.564;2023-02-15T02:01:03;211.52;;;80.18;;
56455;SDS011;42354;53.218;6.564;2023-02-15T02:06:16;225.82;;;82.40;;
56455;SDS011;42354;53.218;6.564;2023-02-15T02:08:42;206.07;;;78.93;;
56455;SDS011;42354;53.218;6.564;2023-02-15T02:11:10;183.68;;;74.32;;
56455;SDS011;42354;53.218;6.564;2023-02-15T02:13:36;207.13;;;79.28;;
56455;SDS011;42354;53.218;6.564;2023-02-15T02:27:35;186.15;;;73.40;;
56455;SDS011;42354;53.218;6.564;2023-02-15T02:30:11;202.75;;;76.13;;
56455;SDS011;42354;53.218;6.564;2023-02-15T02:33:06;186.57;;;72.05;;
56455;SDS011;42354;53.218;6.564;2023-02-15T02:35:54;182.75;;;72.68;;
56455;SDS011;42354;53.218;6.564;2023-02-15T02:43:48;183.55;;;70.20;;
56455;SDS011;42354;53.218;6.564;2023-02-15T02:47:07;178.25;;;69.68;;
56455;SDS011;42354;53.218;6.564;2023-02-15T02:49:58;166.10;;;67.90;;
56455;SDS011;42354;53.218;6.564;2023-02-15T02:52:46;158.85;;;64.32;;
56455;SDS011;42354;53.218;6.564;2023-02-15T02:55:18;172.23;;;67.63;;
56455;SDS011;42354;53.218;6.564;2023-02-15T03:00:45;162.93;;;67.85;;
56455;SDS011;42354;53.218;6.564;2023-02-15T03:03:30;171.68;;;67.75;;
56455;SDS011;42354;53.218;6.564;2023-02-15T03:06:04;160.15;;;67.68;;
56455;SDS011;42354;53.218;6.564;2023-02-15T03:08:36;162.20;;;67.20;;
56455;SDS011;42354;53.218;6.564;2023-02-15T03:11:04;165.27;;;66.72;;
56455;SDS011;42354;53.218;6.564;2023-02-15T03:13:32;167.57;;;67.13;;
56455;SDS011;42354;53.218;6.564;2023-02-15T03:15:59;165.35;;;67.97;;
56455;SDS011;42354;53.218;6.564;2023-02-15T03:18:46;171.18;;;68.05;;
56455;SDS011;42354;53.218;6.564;2023-02-15T03:21:42;163.07;;;67.18;;
56455;SDS011;42354;53.218;6.564;2023-02-15T03:24:22;159.85;;;65.25;;
56455;SDS011;42354;53.218;6.564;2023-02-15T03:26:53;175.73;;;68.93;;
56455;SDS011;42354;53.218;6.564;2023-02-15T03:29:22;162.00;;;65.00;;
56455;SDS011;42354;53.218;6.564;2023-02-15T03:31:52;172.07;;;70.45;;
56455;SDS011;42354;53.218;6.564;2023-02-15T03:34:21;169.77;;;67.00;;
56455;SDS011;42354;53.218;6.564;2023-02-15T03:37:00;171.18;;;69.43;;
56455;SDS011;42354;53.218;6.564;2023-02-15T03:42:49;148.40;;;63.80;;
56455;SDS011;42354;53.218;6.564;2023-02-15T03:45:25;168.95;;;69.30;;
56455;SDS011;42354;53.218;6.564;2023-02-15T03:47:56;149.13;;;66.68;;
56455;SDS011;42354;53.218;6.564;2023-02-15T03:50:27;160.02;;;68.78;;
56455;SDS011;42354;53.218;6.564;2023-02-15T03:53:17;155.20;;;66.67;;
56455;SDS011;42354;53.218;6.564;2023-02-15T03:55:48;160.18;;;67.70;;
56455;SDS011;42354;53.218;6.564;2023-02-15T03:58:18;156.30;;;67.38;;
56455;SDS011;42354;53.218;6.564;2023-02-15T04:01:11;149.05;;;66.35;;
56455;SDS011;42354;53.218;6.564;2023-02-15T04:04:03;160.35;;;66.07;;
56455;SDS011;42354;53.218;6.564;2023-02-15T04:06:35;155.30;;;65.50;;
56455;SDS011;42354;53.218;6.564;2023-02-15T04:09:00;163.70;;;66.80;;
56455;SDS011;42354;53.218;6.564;2023-02-15T04:11:45;181.75;;;70.57;;
56455;SDS011;42354;53.218;6.564;2023-02-15T04:14:11;170.68;;;69.68;;
56455;SDS011;42354;53.218;6.564;2023-02-15T04:16:55;165.60;;;70.07;;
56455;SDS011;42354;53.218;6.564;2023-02-15T04:19:20;171.50;;;70.93;;
56455;SDS011;42354;53.218;6.564;2023-02-15T04:22:04;166.80;;;68.60;;
56455;SDS011;42354;53.218;6.564;2023-02-15T04:24:49;172.75;;;72.72;;
56455;SDS011;42354;53.218;6.564;2023-02-15T04:27:33;167.55;;;70.05;;
56455;SDS011;42354;53.218;6.564;2023-02-15T04:29:58;158.25;;;68.78;;
56455;SDS011;42354;53.218;6.564;2023-02-15T04:32:25;186.40;;;72.10;;
56455;SDS011;42354;53.218;6.564;2023-02-15T04:34:50;180.18;;;69.07;;
56455;SDS011;42354;53.218;6.564;2023-02-15T04:37:17;178.48;;;68.97;;
56455;SDS011;42354;53.218;6.564;2023-02-15T04:39:42;164.07;;;68.57;;
56455;SDS011;42354;53.218;6.564;2023-02-15T04:42:09;164.13;;;69.15;;
56455;SDS011;42354;53.218;6.564;2023-02-15T04:44:34;157.82;;;67.75;;
56455;SDS011;42354;53.218;6.564;2023-02-15T04:46:59;155.27;;;67.80;;
56455;SDS011;42354;53.218;6.564;2023-02-15T04:49:25;165.45;;;69.47;;
56455;SDS011;42354;53.218;6.564;2023-02-15T04:51:50;170.02;;;69.35;;
56455;SDS011;42354;53.218;6.564;2023-02-15T04:54:16;168.35;;;70.63;;
56455;SDS011;42354;53.218;6.564;2023-02-15T04:56:41;160.13;;;68.40;;
56455;SDS011;42354;53.218;6.564;2023-02-15T04:59:09;174.18;;;70.75;;
56455;SDS011;42354;53.218;6.564;2023-02-15T05:01:35;160.63;;;67.30;;
56455;SDS011;42354;53.218;6.564;2023-02-15T05:04:00;157.07;;;67.22;;
56455;SDS011;42354;53.218;6.564;2023-02-15T05:06:26;167.10;;;70.88;;
56455;SDS011;42354;53.218;6.564;2023-02-15T05:08:51;159.98;;;67.57;;
56455;SDS011;42354;53.218;6.564;2023-02-15T05:11:17;165.50;;;68.75;;
56455;SDS011;42354;53.218;6.564;2023-02-15T05:13:42;164.80;;;68.05;;
56455;SDS011;42354;53.218;6.564;2023-02-15T05:16:08;178.68;;;70.05;;
56455;SDS011;42354;53.218;6.564;2023-02-15T05:18:33;168.20;;;70.55;;
56455;SDS011;42354;53.218;6.564;2023-02-15T05:21:00;169.00;;;70.22;;
56455;SDS011;42354;53.218;6.564;2023-02-15T05:23:25;174.77;;;73.25;;
56455;SDS011;42354;53.218;6.564;2023-02-15T05:25:51;173.88;;;72.38;;
56455;SDS011;42354;53.218;6.564;2023-02-15T05:28:35;168.38;;;70.72;;
56455;SDS011;42354;53.218;6.564;2023-02-15T05:31:09;176.50;;;72.38;;
56455;SDS011;42354;53.218;6.564;2023-02-15T05:33:38;175.93;;;71.25;;
56455;SDS011;42354;53.218;6.564;2023-02-15T05:36:04;171.77;;;71.72;;
56455;SDS011;42354;53.218;6.564;2023-02-15T05:38:30;185.45;;;75.20;;
56455;SDS011;42354;53.218;6.564;2023-02-15T05:40:55;175.38;;;71.40;;
56455;SDS011;42354;53.218;6.564;2023-02-15T05:43:21;165.80;;;72.03;;
56455;SDS011;42354;53.218;6.564;2023-02-15T05:45:47;186.25;;;71.25;;
56455;SDS011;42354;53.218;6.564;2023-02-15T05:48:13;188.23;;;72.50;;
56455;SDS011;42354;53.218;6.564;2023-02-15T05:50:39;174.25;;;73.13;;
56455;SDS011;42354;53.218;6.564;2023-02-15T05:53:05;186.93;;;74.55;;
56455;SDS011;42354;53.218;6.564;2023-02-15T05:55:30;191.63;;;75.38;;
56455;SDS011;42354;53.218;6.564;2023-02-15T05:57:55;184.95;;;75.47;;
56455;SDS011;42354;53.218;6.564;2023-02-15T06:00:21;187.98;;;75.20;;
56455;SDS011;42354;53.218;6.564;2023-02-15T06:02:46;177.88;;;76.00;;
56455;SDS011;42354;53.218;6.564;2023-02-15T06:05:12;177.57;;;73.55;;
56455;SDS011;42354;53.218;6.564;2023-02-15T06:07:37;186.40;;;75.60;;
56455;SDS011;42354;53.218;6.564;2023-02-15T06:10:03;190.27;;;80.43;;
56455;SDS011;42354;53.218;6.564;2023-02-15T06:12:29;183.02;;;76.03;;
56455;SDS011;42354;53.218;6.564;2023-02-15T06:14:55;193.90;;;78.88;;
56455;SDS011;42354;53.218;6.564;2023-02-15T06:17:21;192.27;;;77.55;;
56455;SDS011;42354;53.218;6.564;2023-02-15T06:19:46;176.63;;;76.57;;
56455;SDS011;42354;53.218;6.564;2023-02-15T06:22:12;198.38;;;80.35;;
56455;SDS011;42354;53.218;6.564;2023-02-15T06:24:39;194.95;;;78.57;;
56455;SDS011;42354;53.218;6.564;2023-02-15T06:27:07;182.20;;;77.30;;
56455;SDS011;42354;53.218;6.564;2023-02-15T06:29:32;173.38;;;77.70;;
56455;SDS011;42354;53.218;6.564;2023-02-15T06:31:58;172.38;;;75.90;;
56455;SDS011;42354;53.218;6.564;2023-02-15T06:34:23;177.40;;;74.35;;
56455;SDS011;42354;53.218;6.564;2023-02-15T06:36:49;165.63;;;72.47;;
56455;SDS011;42354;53.218;6.564;2023-02-15T06:39:17;171.77;;;72.22;;
56455;SDS011;42354;53.218;6.564;2023-02-15T06:41:42;158.40;;;68.00;;
56455;SDS011;42354;53.218;6.564;2023-02-15T06:44:08;168.20;;;70.78;;
56455;SDS011;42354;53.218;6.564;2023-02-15T06:46:34;158.88;;;66.57;;
56455;SDS011;42354;53.218;6.564;2023-02-15T06:48:59;161.25;;;69.68;;
56455;SDS011;42354;53.218;6.564;2023-02-15T06:51:25;159.68;;;69.28;;
56455;SDS011;42354;53.218;6.564;2023-02-15T06:53:50;152.20;;;66.57;;
56455;SDS011;42354;53.218;6.564;2023-02-15T06:56:15;142.18;;;63.58;;
56455;SDS011;42354;53.218;6.564;2023-02-15T06:58:41;154.25;;;67.15;;
56455;SDS011;42354;53.218;6.564;2023-02-15T07:01:07;153.88;;;64.03;;
56455;SDS011;42354;53.218;6.564;2023-02-15T07:03:33;142.95;;;62.80;;
56455;SDS011;42354;53.218;6.564;2023-02-15T07:05:59;149.70;;;63.45;;
56455;SDS011;42354;53.218;6.564;2023-02-15T07:08:27;130.20;;;58.08;;
56455;SDS011;42354;53.218;6.564;2023-02-15T07:10:53;137.15;;;59.05;;
56455;SDS011;42354;53.218;6.564;2023-02-15T07:13:19;147.30;;;59.10;;
56455;SDS011;42354;53.218;6.564;2023-02-15T07:15:45;127.20;;;54.38;;
56455;SDS011;42354;53.218;6.564;2023-02-15T07:18:13;134.45;;;57.05;;
56455;SDS011;42354;53.218;6.564;2023-02-15T07:20:39;127.95;;;57.50;;
56455;SDS011;42354;53.218;6.564;2023-02-15T07:23:06;114.03;;;54.92;;
56455;SDS011;42354;53.218;6.564;2023-02-15T07:25:33;115.70;;;55.20;;
56455;SDS011;42354;53.218;6.564;2023-02-15T07:28:00;112.93;;;51.38;;
56455;SDS011;42354;53.218;6.564;2023-02-15T07:30:26;112.10;;;52.90;;
56455;SDS011;42354;53.218;6.564;2023-02-15T07:32:56;113.10;;;49.70;;
56455;SDS011;42354;53.218;6.564;2023-02-15T07:36:14;106.20;;;48.10;;
56455;SDS011;42354;53.218;6.564;2023-02-15T07:38:38;110.70;;;50.90;;
56455;SDS011;42354;53.218;6.564;2023-02-15T07:41:06;107.40;;;49.78;;
56455;SDS011;42354;53.218;6.564;2023-02-15T07:43:34;141.32;;;52.05;;
56455;SDS011;42354;53.218;6.564;2023-02-15T07:46:02;102.00;;;48.08;;
56455;SDS011;42354;53.218;6.564;2023-02-15T07:48:31;97.22;;;46.85;;
56455;SDS011;42354;53.218;6.564;2023-02-15T07:51:00;102.07;;;48.58;;
56455;SDS011;42354;53.218;6.564;2023-02-15T07:53:27;104.68;;;49.28;;
56455;SDS011;42354;53.218;6.564;2023-02-15T07:55:53;107.82;;;47.10;;
56455;SDS011;42354;53.218;6.564;2023-02-15T07:58:19;101.57;;;46.92;;
56455;SDS011;42354;53.218;6.564;2023-02-15T08:00:45;98.15;;;46.13;;
56455;SDS011;42354;53.218;6.564;2023-02-15T08:03:23;95.07;;;45.72;;
56455;SDS011;42354;53.218;6.564;2023-02-15T08:05:54;103.90;;;47.60;;
56455;SDS011;42354;53.218;6.564;2023-02-15T08:08:21;92.88;;;45.50;;
56455;SDS011;42354;53.218;6.564;2023-02-15T08:10:59;97.18;;;45.95;;
56455;SDS011;42354;53.218;6.564;2023-02-15T08:13:51;92.22;;;46.95;;
56455;SDS011;42354;53.218;6.564;2023-02-15T08:16:39;91.32;;;44.38;;
56455;SDS011;42354;53.218;6.564;2023-02-15T08:19:08;91.10;;;45.88;;
56455;SDS011;42354;53.218;6.564;2023-02-15T08:21:45;88.80;;;43.83;;
56455;SDS011;42354;53.218;6.564;2023-02-15T08:24:13;91.05;;;46.85;;
56455;SDS011;42354;53.218;6.564;2023-02-15T08:26:41;92.07;;;46.22;;
56455;SDS011;42354;53.218;6.564;2023-02-15T08:29:09;85.47;;;42.95;;
56455;SDS011;42354;53.218;6.564;2023-02-15T08:31:35;85.43;;;44.30;;
56455;SDS011;42354;53.218;6.564;2023-02-15T08:34:02;80.65;;;43.42;;
56455;SDS011;42354;53.218;6.564;2023-02-15T08:36:29;84.35;;;43.55;;
56455;SDS011;42354;53.218;6.564;2023-02-15T08:39:00;87.35;;;43.95;;
56455;SDS011;42354;53.218;6.564;2023-02-15T08:41:29;88.18;;;43.20;;
56455;SDS011;42354;53.218;6.564;2023-02-15T08:43:57;90.28;;;43.28;;
56455;SDS011;42354;53.218;6.564;2023-02-15T08:46:26;86.00;;;43.33;;
56455;SDS011;42354;53.218;6.564;2023-02-15T08:48:53;81.57;;;41.55;;
56455;SDS011;42354;53.218;6.564;2023-02-15T08:51:22;86.10;;;42.45;;
56455;SDS011;42354;53.218;6.564;2023-02-15T08:53:51;80.20;;;41.90;;
56455;SDS011;42354;53.218;6.564;2023-02-15T08:56:19;85.57;;;42.13;;
56455;SDS011;42354;53.218;6.564;2023-02-15T08:58:47;77.60;;;41.35;;
56455;SDS011;42354;53.218;6.564;2023-02-15T09:01:16;77.85;;;41.47;;
56455;SDS011;42354;53.218;6.564;2023-02-15T09:03:45;83.43;;;41.30;;
56455;SDS011;42354;53.218;6.564;2023-02-15T09:06:11;87.68;;;41.78;;
56455;SDS011;42354;53.218;6.564;2023-02-15T09:08:37;90.15;;;42.13;;
56455;SDS011;42354;53.218;6.564;2023-02-15T09:13:32;78.65;;;41.58;;
56455;SDS011;42354;53.218;6.564;2023-02-15T09:15:59;79.28;;;41.65;;
56455;SDS011;42354;53.218;6.564;2023-02-15T09:18:26;80.38;;;41.08;;
56455;SDS011;42354;53.218;6.564;2023-02-15T09:20:52;72.85;;;40.35;;
56455;SDS011;42354;53.218;6.564;2023-02-15T09:23:17;75.72;;;38.47;;
56455;SDS011;42354;53.218;6.564;2023-02-15T09:25:42;76.65;;;40.70;;
56455;SDS011;42354;53.218;6.564;2023-02-15T09:28:08;70.07;;;37.65;;
56455;SDS011;42354;53.218;6.564;2023-02-15T09:30:33;71.60;;;38.28;;
56455;SDS011;42354;53.218;6.564;2023-02-15T09:32:59;67.95;;;37.17;;
56455;SDS011;42354;53.218;6.564;2023-02-15T09:35:24;72.18;;;38.35;;
56455;SDS011;42354;53.218;6.564;2023-02-15T09:37:50;75.15;;;38.65;;
56455;SDS011;42354;53.218;6.564;2023-02-15T09:40:15;70.10;;;37.30;;
56455;SDS011;42354;53.218;6.564;2023-02-15T09:42:54;65.90;;;37.95;;
56455;SDS011;42354;53.218;6.564;2023-02-15T09:48:11;66.95;;;36.25;;
56455;SDS011;42354;53.218;6.564;2023-02-15T09:51:12;66.97;;;37.55;;
56455;SDS011;42354;53.218;6.564;2023-02-15T09:56:50;62.75;;;35.17;;
56455;SDS011;42354;53.218;6.564;2023-02-15T10:26:48;56.95;;;32.35;;
56455;SDS011;42354;53.218;6.564;2023-02-15T10:32:13;53.80;;;31.92;;
56455;SDS011;42354;53.218;6.564;2023-02-15T10:34:43;55.35;;;33.15;;
56455;SDS011;42354;53.218;6.564;2023-02-15T10:45:28;55.90;;;32.55;;
56455;SDS011;42354;53.218;6.564;2023-02-15T10:51:08;57.10;;;31.58;;
56455;SDS011;42354;53.218;6.564;2023-02-15T11:00:02;54.17;;;31.88;;
56455;SDS011;42354;53.218;6.564;2023-02-15T11:02:42;58.42;;;33.13;;
56455;SDS011;42354;53.218;6.564;2023-02-15T11:08:06;54.67;;;32.15;;
56455;SDS011;42354;53.218;6.564;2023-02-15T11:10:37;63.47;;;33.53;;
56455;SDS011;42354;53.218;6.564;2023-02-15T11:13:11;59.22;;;33.33;;
56455;SDS011;42354;53.218;6.564;2023-02-15T11:15:45;57.42;;;34.03;;
56455;SDS011;42354;53.218;6.564;2023-02-15T11:20:58;61.75;;;33.42;;
56455;SDS011;42354;53.218;6.564;2023-02-15T11:23:27;59.35;;;32.92;;
56455;SDS011;42354;53.218;6.564;2023-02-15T11:25:57;57.47;;;32.20;;
56455;SDS011;42354;53.218;6.564;2023-02-15T11:28:31;59.03;;;32.78;;
56455;SDS011;42354;53.218;6.564;2023-02-15T11:31:04;59.45;;;32.13;;
56455;SDS011;42354;53.218;6.564;2023-02-15T11:33:40;53.45;;;31.35;;
56455;SDS011;42354;53.218;6.564;2023-02-15T11:36:18;58.08;;;32.08;;
56455;SDS011;42354;53.218;6.564;2023-02-15T11:38:47;55.78;;;32.22;;
56455;SDS011;42354;53.218;6.564;2023-02-15T11:41:18;54.78;;;32.45;;
56455;SDS011;42354;53.218;6.564;2023-02-15T11:43:52;55.33;;;30.35;;
56455;SDS011;42354;53.218;6.564;2023-02-15T11:46:26;53.00;;;30.55;;
56455;SDS011;42354;53.218;6.564;2023-02-15T11:48:51;55.03;;;30.80;;
56455;SDS011;42354;53.218;6.564;2023-02-15T11:51:17;56.83;;;30.85;;
56455;SDS011;42354;53.218;6.564;2023-02-15T11:53:45;61.00;;;31.92;;
56455;SDS011;42354;53.218;6.564;2023-02-15T11:56:17;54.47;;;30.42;;
56455;SDS011;42354;53.218;6.564;2023-02-15T11:58:55;57.85;;;30.00;;
56455;SDS011;42354;53.218;6.564;2023-02-15T12:01:31;56.40;;;30.17;;
56455;SDS011;42354;53.218;6.564;2023-02-15T12:07:01;56.63;;;29.90;;
56455;SDS011;42354;53.218;6.564;2023-02-15T12:12:25;51.15;;;28.92;;
56455;SDS011;42354;53.218;6.564;2023-02-15T12:14:56;57.05;;;30.00;;
56455;SDS011;42354;53.218;6.564;2023-02-15T12:17:27;55.92;;;29.27;;
56455;SDS011;42354;53.218;6.564;2023-02-15T12:19:57;52.45;;;29.33;;
56455;SDS011;42354;53.218;6.564;2023-02-15T12:24:50;54.25;;;29.70;;
56455;SDS011;42354;53.218;6.564;2023-02-15T12:27:19;51.17;;;28.13;;
56455;SDS011;42354;53.218;6.564;2023-02-15T12:29:58;51.53;;;29.85;;
56455;SDS011;42354;53.218;6.564;2023-02-15T12:32:28;49.03;;;27.70;;
56455;SDS011;42354;53.218;6.564;2023-02-15T12:38:09;58.47;;;31.25;;
56455;SDS011;42354;53.218;6.564;2023-02-15T12:40:40;54.92;;;29.70;;
56455;SDS011;42354;53.218;6.564;2023-02-15T12:43:16;61.90;;;31.27;;
56455;SDS011;42354;53.218;6.564;2023-02-15T12:46:13;58.28;;;31.15;;
56455;SDS011;42354;53.218;6.564;2023-02-15T12:48:47;57.70;;;30.75;;
56455;SDS011;42354;53.218;6.564;2023-02-15T12:51:31;57.60;;;31.63;;
56455;SDS011;42354;53.218;6.564;2023-02-15T12:56:59;58.00;;;31.88;;
56455;SDS011;42354;53.218;6.564;2023-02-15T13:02:26;60.70;;;33.67;;
56455;SDS011;42354;53.218;6.564;2023-02-15T13:05:18;64.88;;;32.97;;
56455;SDS011;42354;53.218;6.564;2023-02-15T13:07:50;56.45;;;32.25;;
56455;SDS011;42354;53.218;6.564;2023-02-15T13:10:25;61.17;;;33.15;;
56455;SDS011;42354;53.218;6.564;2023-02-15T13:12:58;60.83;;;33.70;;
56455;SDS011;42354;53.218;6.564;2023-02-15T13:17:51;62.83;;;34.42;;
56455;SDS011;42354;53.218;6.564;2023-02-15T13:20:19;63.17;;;34.85;;
56455;SDS011;42354;53.218;6.564;2023-02-15T13:22:50;59.97;;;33.83;;
56455;SDS011;42354;53.218;6.564;2023-02-15T13:27:46;63.80;;;33.50;;
56455;SDS011;42354;53.218;6.564;2023-02-15T13:30:19;63.42;;;33.63;;
56455;SDS011;42354;53.218;6.564;2023-02-15T13:32:51;64.55;;;35.10;;
56455;SDS011;42354;53.218;6.564;2023-02-15T13:35:20;62.58;;;34.00;;
56455;SDS011;42354;53.218;6.564;2023-02-15T13:37:57;61.70;;;32.88;;
56455;SDS011;42354;53.218;6.564;2023-02-15T13:40:48;65.45;;;34.03;;
56455;SDS011;42354;53.218;6.564;2023-02-15T13:46:21;57.13;;;31.60;;
56455;SDS011;42354;53.218;6.564;2023-02-15T13:52:08;61.45;;;32.63;;
56455;SDS011;42354;53.218;6.564;2023-02-15T13:55:50;60.65;;;33.40;;
56455;SDS011;42354;53.218;6.564;2023-02-15T14:08:17;62.63;;;33.22;;
56455;SDS011;42354;53.218;6.564;2023-02-15T14:10:59;56.50;;;32.30;;
56455;SDS011;42354;53.218;6.564;2023-02-15T14:22:34;52.40;;;30.17;;
56455;SDS011;42354;53.218;6.564;2023-02-15T14:25:12;60.10;;;29.75;;
56455;SDS011;42354;53.218;6.564;2023-02-15T14:30:45;55.67;;;30.35;;
56455;SDS011;42354;53.218;6.564;2023-02-15T14:35:47;54.15;;;30.33;;
56455;SDS011;42354;53.218;6.564;2023-02-15T14:41:14;53.28;;;29.50;;
56455;SDS011;42354;53.218;6.564;2023-02-15T14:48:50;62.10;;;30.48;;
56455;SDS011;42354;53.218;6.564;2023-02-15T14:54:07;56.25;;;28.50;;
56455;SDS011;42354;53.218;6.564;2023-02-15T14:56:33;52.42;;;28.80;;
56455;SDS011;42354;53.218;6.564;2023-02-15T14:59:00;54.90;;;27.92;;
56455;SDS011;42354;53.218;6.564;2023-02-15T15:01:38;50.88;;;29.08;;
56455;SDS011;42354;53.218;6.564;2023-02-15T15:04:21;50.80;;;29.10;;
56455;SDS011;42354;53.218;6.564;2023-02-15T15:06:57;51.28;;;29.42;;
56455;SDS011;42354;53.218;6.564;2023-02-15T15:09:27;53.67;;;29.25;;
56455;SDS011;42354;53.218;6.564;2023-02-15T15:11:55;52.47;;;28.73;;
56455;SDS011;42354;53.218;6.564;2023-02-15T15:14:37;54.55;;;28.65;;
56455;SDS011;42354;53.218;6.564;2023-02-15T15:17:05;50.33;;;27.83;;
56455;SDS011;42354;53.218;6.564;2023-02-15T15:22:18;55.00;;;28.50;;
56455;SDS011;42354;53.218;6.564;2023-02-15T15:49:23;56.53;;;29.10;;
56455;SDS011;42354;53.218;6.564;2023-02-15T15:51:53;56.40;;;30.88;;
56455;SDS011;42354;53.218;6.564;2023-02-15T15:54:23;59.65;;;30.65;;
56455;SDS011;42354;53.218;6.564;2023-02-15T15:56:52;54.78;;;30.02;;
56455;SDS011;42354;53.218;6.564;2023-02-15T15:59:25;52.75;;;28.77;;
56455;SDS011;42354;53.218;6.564;2023-02-15T16:01:53;53.42;;;30.35;;
56455;SDS011;42354;53.218;6.564;2023-02-15T16:04:26;54.80;;;30.95;;
56455;SDS011;42354;53.218;6.564;2023-02-15T16:06:54;53.08;;;30.67;;
56455;SDS011;42354;53.218;6.564;2023-02-15T16:09:27;59.58;;;31.73;;
56455;SDS011;42354;53.218;6.564;2023-02-15T16:11:54;58.17;;;31.52;;
56455;SDS011;42354;53.218;6.564;2023-02-15T16:17:02;55.88;;;30.20;;
56455;SDS011;42354;53.218;6.564;2023-02-15T16:19:32;56.63;;;30.88;;
56455;SDS011;42354;53.218;6.564;2023-02-15T16:22:00;58.17;;;31.08;;
56455;SDS011;42354;53.218;6.564;2023-02-15T16:27:36;57.72;;;31.27;;
56455;SDS011;42354;53.218;6.564;2023-02-15T16:30:23;55.80;;;31.50;;
56455;SDS011;42354;53.218;6.564;2023-02-15T16:33:33;60.15;;;32.40;;
56455;SDS011;42354;53.218;6.564;2023-02-15T16:35:59;68.75;;;33.42;;
56455;SDS011;42354;53.218;6.564;2023-02-15T16:41:21;64.07;;;33.22;;
56455;SDS011;42354;53.218;6.564;2023-02-15T16:43:50;62.67;;;32.80;;
56455;SDS011;42354;53.218;6.564;2023-02-15T16:49:02;60.92;;;33.05;;
56455;SDS011;42354;53.218;6.564;2023-02-15T16:51:31;65.85;;;33.13;;
56455;SDS011;42354;53.218;6.564;2023-02-15T16:54:06;62.58;;;34.42;;
56455;SDS011;42354;53.218;6.564;2023-02-15T16:56:33;62.60;;;33.22;;
56455;SDS011;42354;53.218;6.564;2023-02-15T16:58:59;67.15;;;33.20;;
56455;SDS011;42354;53.218;6.564;2023-02-15T17:01:29;65.70;;;33.40;;
56455;SDS011;42354;53.218;6.564;2023-02-15T17:04:11;68.60;;;34.10;;
56455;SDS011;42354;53.218;6.564;2023-02-15T17:06:37;66.32;;;33.85;;
56455;SDS011;42354;53.218;6.564;2023-02-15T17:09:03;63.42;;;32.33;;
56455;SDS011;42354;53.218;6.564;2023-02-15T17:11:40;61.47;;;32.63;;
56455;SDS011;42354;53.218;6.564;2023-02-15T17:19:47;67.85;;;33.75;;
56455;SDS011;42354;53.218;6.564;2023-02-15T17:22:17;62.28;;;33.13;;
56455;SDS011;42354;53.218;6.564;2023-02-15T17:24:45;61.58;;;31.98;;
56455;SDS011;42354;53.218;6.564;2023-02-15T17:27:17;63.85;;;32.00;;
56455;SDS011;42354;53.218;6.564;2023-02-15T17:29:55;57.92;;;30.65;;
56455;SDS011;42354;53.218;6.564;2023-02-15T17:32:27;64.35;;;32.50;;
56455;SDS011;42354;53.218;6.564;2023-02-15T17:37:42;61.95;;;32.00;;
56455;SDS011;42354;53.218;6.564;2023-02-15T17:40:16;59.17;;;32.22;;
56455;SDS011;42354;53.218;6.564;2023-02-15T17:42:45;65.63;;;34.20;;
56455;SDS011;42354;53.218;6.564;2023-02-15T17:45:10;61.35;;;32.47;;
56455;SDS011;42354;53.218;6.564;2023-02-15T17:47:37;63.83;;;32.17;;
56455;SDS011;42354;53.218;6.564;2023-02-15T17:50:06;61.60;;;32.50;;
56455;SDS011;42354;53.218;6.564;2023-02-15T17:52:33;66.40;;;32.95;;
56455;SDS011;42354;53.218;6.564;2023-02-15T17:55:01;68.13;;;32.53;;
56455;SDS011;42354;53.218;6.564;2023-02-15T17:57:56;67.63;;;33.63;;
56455;SDS011;42354;53.218;6.564;2023-02-15T18:00:21;65.82;;;32.33;;
56455;SDS011;42354;53.218;6.564;2023-02-15T18:03:07;63.08;;;32.85;;